createdAt,value
2018-10-05T00:00:21.376Z,7.10
2018-10-05T00:05:50.768Z,7.00
2018-10-05T00:11:20.129Z,7.00
2018-10-05T00:16:49.436Z,6.90
2018-10-05T00:22:19.416Z,6.90
2018-10-05T00:27:48.670Z,6.80
2018-10-05T00:33:17.932Z,6.80
2018-10-05T00:38:47.535Z,6.70
2018-10-05T00:44:16.812Z,6.60
2018-10-05T00:49:46.175Z,6.60
2018-10-05T00:55:15.420Z,6.60
2018-10-05T01:00:51.645Z,6.60
2018-10-05T01:06:20.916Z,6.60
2018-10-05T01:11:52.272Z,6.60
2018-10-05T01:17:21.505Z,6.50
2018-10-05T01:22:50.892Z,6.50
2018-10-05T01:28:20.165Z,6.40
2018-10-05T01:33:49.467Z,6.30
2018-10-05T01:39:18.742Z,6.20
2018-10-05T01:44:48.023Z,6.20
2018-10-05T01:50:17.404Z,6.10
2018-10-05T01:55:55.269Z,6.10
2018-10-05T02:01:24.549Z,6.00
2018-10-05T02:06:53.812Z,6.00
2018-10-05T02:12:23.172Z,5.90
2018-10-05T02:17:52.521Z,5.90
2018-10-05T02:23:21.775Z,5.90
2018-10-05T02:28:52.085Z,5.80
2018-10-05T02:34:22.127Z,5.80
2018-10-05T02:39:52.243Z,5.80
2018-10-05T02:45:21.826Z,5.70
2018-10-05T02:50:54.935Z,5.70
2018-10-05T02:56:25.392Z,5.60
2018-10-05T03:02:11.427Z,5.60
2018-10-05T03:07:40.672Z,5.50
2018-10-05T03:13:09.896Z,5.50
2018-10-05T03:18:39.164Z,5.40
2018-10-05T03:24:10.493Z,5.40
2018-10-05T03:29:39.729Z,5.40
2018-10-05T03:35:21.705Z,5.30
2018-10-05T03:40:51.013Z,5.30
2018-10-05T03:46:20.396Z,5.20
2018-10-05T03:51:49.700Z,5.20
2018-10-05T03:57:19.017Z,5.20
2018-10-05T04:02:48.360Z,5.20
2018-10-05T04:08:17.676Z,5.20
2018-10-05T04:13:46.934Z,5.10
2018-10-05T04:19:16.311Z,5.10
2018-10-05T04:24:45.551Z,5.00
2018-10-05T04:30:14.961Z,5.00
2018-10-05T04:35:45.647Z,5.00
2018-10-05T04:41:15.975Z,4.90
2018-10-05T04:46:45.490Z,4.80
2018-10-05T04:52:14.817Z,4.80
2018-10-05T04:57:44.237Z,4.80
2018-10-05T05:03:15.213Z,4.80
2018-10-05T05:08:44.601Z,4.80
2018-10-05T05:14:13.935Z,4.80
2018-10-05T05:19:43.288Z,4.80
2018-10-05T05:25:13.628Z,4.80
2018-10-05T05:30:42.938Z,4.80
2018-10-05T05:36:12.283Z,4.80
2018-10-05T05:41:41.601Z,4.90
2018-10-05T05:47:10.989Z,5.00
2018-10-05T05:52:40.275Z,5.20
2018-10-05T05:58:09.529Z,5.30
2018-10-05T06:03:39.492Z,5.50
2018-10-05T06:09:10.379Z,5.70
2018-10-05T06:14:39.697Z,5.90
2018-10-05T06:20:08.973Z,6.20
2018-10-05T06:25:38.285Z,6.40
2018-10-05T06:31:07.944Z,6.60
2018-10-05T06:36:37.249Z,6.90
2018-10-05T06:42:06.681Z,7.10
2018-10-05T06:47:35.878Z,7.40
2018-10-05T06:53:05.222Z,7.70
2018-10-05T06:58:34.419Z,7.90
2018-10-05T07:04:03.696Z,8.20
2018-10-05T07:09:32.976Z,8.50
2018-10-05T07:15:02.244Z,8.70
2018-10-05T07:20:31.949Z,8.90
2018-10-05T07:26:01.333Z,9.10
2018-10-05T07:31:30.677Z,9.40
2018-10-05T07:36:59.998Z,9.70
2018-10-05T07:42:29.308Z,10.10
2018-10-05T07:47:58.581Z,10.40
2018-10-05T07:53:27.879Z,10.70
2018-10-05T07:58:57.132Z,11.10
2018-10-05T08:04:26.544Z,11.40
2018-10-05T08:09:55.859Z,11.70
2018-10-05T08:15:25.180Z,11.90
2018-10-05T08:20:54.589Z,12.20
2018-10-05T08:26:23.836Z,12.50
2018-10-05T08:31:53.172Z,12.80
2018-10-05T08:37:22.503Z,13.20
2018-10-05T08:42:51.783Z,13.40
2018-10-05T08:48:21.006Z,13.70
2018-10-05T08:53:50.354Z,14.00
2018-10-05T08:59:19.628Z,14.30
2018-10-05T09:04:48.952Z,14.50
2018-10-05T09:10:18.333Z,14.70
2018-10-05T09:15:47.656Z,14.90
2018-10-05T09:21:17.234Z,15.10
2018-10-05T09:26:46.685Z,15.30
2018-10-05T09:32:17.108Z,15.50
2018-10-05T09:37:46.649Z,15.80
2018-10-05T09:43:18.428Z,15.90
2018-10-05T09:48:47.760Z,16.10
2018-10-05T09:54:25.574Z,16.20
2018-10-05T09:59:55.008Z,16.40
2018-10-05T10:05:24.725Z,16.60
2018-10-05T10:10:54.087Z,16.90
2018-10-05T10:16:23.537Z,17.20
2018-10-05T10:21:53.868Z,17.50
2018-10-05T10:27:23.777Z,17.80
2018-10-05T10:32:54.158Z,18.00
2018-10-05T10:38:23.889Z,18.20
2018-10-05T10:43:54.408Z,18.40
2018-10-05T10:49:23.673Z,18.60
2018-10-05T10:54:53.178Z,18.60
2018-10-05T11:00:22.681Z,18.70
2018-10-05T11:05:52.056Z,19.00
2018-10-05T11:11:23.566Z,19.30
2018-10-05T11:16:53.002Z,19.50
2018-10-05T11:22:22.300Z,19.80
2018-10-05T11:27:52.062Z,19.90
2018-10-05T11:33:21.698Z,20.20
2018-10-05T11:38:53.061Z,20.40
2018-10-05T11:44:22.429Z,20.70
2018-10-05T11:49:51.705Z,20.60
2018-10-05T11:55:21.279Z,20.80
2018-10-05T12:00:50.736Z,20.90
2018-10-05T12:06:20.061Z,20.80
2018-10-05T12:11:49.459Z,20.70
2018-10-05T12:17:19.894Z,20.80
2018-10-05T12:22:49.276Z,20.90
2018-10-05T12:28:18.592Z,21.00
2018-10-05T12:33:48.015Z,21.00
2018-10-05T12:39:20.984Z,21.10
2018-10-05T12:44:52.300Z,21.40
2018-10-05T12:50:21.867Z,21.40
2018-10-05T12:55:52.166Z,22.10
2018-10-05T13:01:22.005Z,23.10
2018-10-05T13:06:51.490Z,23.90
2018-10-05T13:12:20.842Z,24.10
2018-10-05T13:17:50.436Z,24.40
2018-10-05T13:23:19.801Z,24.80
2018-10-05T13:28:49.164Z,25.00
2018-10-05T13:34:18.501Z,25.70
2018-10-05T13:39:47.768Z,26.40
2018-10-05T13:45:17.065Z,27.10
2018-10-05T13:50:46.398Z,27.60
2018-10-05T13:56:19.153Z,28.50
2018-10-05T14:01:48.420Z,29.10
2018-10-05T14:07:17.779Z,29.90
2018-10-05T14:12:47.189Z,30.60
2018-10-05T14:18:16.568Z,31.00
2018-10-05T14:23:46.036Z,30.90
2018-10-05T14:29:15.374Z,31.20
2018-10-05T14:34:44.624Z,32.10
2018-10-05T14:40:13.998Z,32.50
2018-10-05T14:45:43.336Z,32.30
2018-10-05T14:51:12.632Z,30.80
2018-10-05T14:56:41.896Z,29.10
2018-10-05T15:02:11.237Z,28.30
2018-10-05T15:07:40.560Z,27.50
2018-10-05T15:13:10.333Z,25.90
2018-10-05T15:18:39.600Z,25.40
2018-10-05T15:24:08.969Z,23.60
2018-10-05T15:29:38.294Z,22.70
2018-10-05T15:35:07.688Z,22.10
2018-10-05T15:40:37.974Z,21.60
2018-10-05T15:46:09.583Z,21.10
2018-10-05T15:51:38.913Z,20.70
2018-10-05T15:57:08.378Z,20.40
2018-10-05T16:02:37.757Z,20.30
2018-10-05T16:08:07.280Z,20.00
2018-10-05T16:13:36.553Z,19.70
2018-10-05T16:19:07.337Z,19.40
2018-10-05T16:24:40.659Z,19.20
2018-10-05T16:30:11.072Z,18.90
2018-10-05T16:35:40.497Z,18.70
2018-10-05T16:41:09.808Z,18.50
2018-10-05T16:46:42.377Z,18.20
2018-10-05T16:52:11.594Z,18.00
2018-10-05T16:57:41.015Z,17.80
2018-10-05T17:03:11.593Z,17.50
2018-10-05T17:08:43.689Z,17.30
2018-10-05T17:14:17.629Z,17.10
2018-10-05T17:19:50.551Z,16.80
2018-10-05T17:25:23.253Z,16.60
2018-10-05T17:30:52.620Z,16.30
2018-10-05T17:36:22.073Z,16.10
2018-10-05T17:41:51.382Z,15.90
2018-10-05T17:47:20.798Z,15.70
2018-10-05T17:52:51.227Z,15.50
2018-10-05T17:58:20.560Z,15.30
2018-10-05T18:03:49.906Z,15.20
2018-10-05T18:09:19.174Z,15.00
2018-10-05T18:14:50.471Z,14.90
2018-10-05T18:20:25.964Z,14.70
2018-10-05T18:25:56.341Z,14.50
2018-10-05T18:31:25.671Z,14.40
2018-10-05T18:36:55.112Z,14.20
2018-10-05T18:42:27.896Z,14.10
2018-10-05T18:47:58.417Z,13.90
2018-10-05T18:53:27.939Z,13.80
2018-10-05T18:58:57.327Z,13.70
2018-10-05T19:04:26.857Z,13.60
2018-10-05T19:09:56.327Z,13.50
2018-10-05T19:15:25.661Z,13.40
2018-10-05T19:20:55.187Z,13.20
2018-10-05T19:26:24.845Z,13.10
2018-10-05T19:31:54.211Z,12.90
2018-10-05T19:37:23.897Z,12.80
2018-10-05T19:42:56.565Z,12.70
2018-10-05T19:48:26.893Z,12.50
2018-10-05T19:53:56.697Z,12.40
2018-10-05T19:59:26.488Z,12.30
2018-10-05T20:04:58.088Z,12.20
2018-10-05T20:10:29.539Z,12.10
2018-10-05T20:15:59.197Z,12.00
2018-10-05T20:21:28.727Z,11.90
2018-10-05T20:26:58.044Z,11.80
2018-10-05T20:32:27.615Z,11.60
2018-10-05T20:37:56.818Z,11.50
2018-10-05T20:43:26.133Z,11.50
2018-10-05T20:48:55.640Z,11.40
2018-10-05T20:54:25.046Z,11.30
2018-10-05T20:59:54.295Z,11.20
2018-10-05T21:05:23.591Z,11.10
2018-10-05T21:10:52.995Z,11.10
2018-10-05T21:16:22.285Z,11.00
2018-10-05T21:21:51.629Z,10.90
2018-10-05T21:27:20.908Z,10.80
2018-10-05T21:32:51.368Z,10.70
2018-10-05T21:38:20.784Z,10.70
2018-10-05T21:43:50.254Z,10.60
2018-10-05T21:49:19.540Z,10.50
2018-10-05T21:54:48.857Z,10.50
2018-10-05T22:00:18.260Z,10.40
2018-10-05T22:05:47.622Z,10.40
2018-10-05T22:11:16.955Z,10.30
2018-10-05T22:16:46.312Z,10.30
2018-10-05T22:22:15.652Z,10.20
2018-10-05T22:27:45.113Z,10.10
2018-10-05T22:33:14.377Z,10.10
2018-10-05T22:38:43.689Z,10.00
2018-10-05T22:44:12.972Z,10.00
2018-10-05T22:49:42.257Z,9.90
2018-10-05T22:55:11.565Z,9.90
2018-10-05T23:00:40.860Z,9.80
2018-10-05T23:06:11.358Z,9.80
2018-10-05T23:11:40.671Z,9.70
2018-10-05T23:17:09.941Z,9.70
2018-10-05T23:22:39.222Z,9.70
2018-10-05T23:28:08.500Z,9.60
2018-10-05T23:33:37.841Z,9.60
2018-10-05T23:39:09.827Z,9.60
2018-10-05T23:44:39.129Z,9.50
2018-10-05T23:50:08.476Z,9.50
2018-10-05T23:55:37.937Z,9.40
